createdAt,value
2019-06-26T00:00:55.914Z,0.00
2019-06-26T00:01:55.923Z,0.00
2019-06-26T00:02:55.895Z,0.00
2019-06-26T00:03:55.880Z,0.00
2019-06-26T00:04:55.875Z,0.00
2019-06-26T00:05:55.858Z,0.00
2019-06-26T00:06:55.931Z,0.00
2019-06-26T00:07:55.856Z,0.00
2019-06-26T00:08:55.831Z,0.00
2019-06-26T00:09:55.815Z,0.00
2019-06-26T00:10:55.799Z,0.00
2019-06-26T00:11:55.794Z,0.00
2019-06-26T00:12:55.784Z,0.00
2019-06-26T00:13:55.790Z,0.00
2019-06-26T00:14:55.757Z,0.00
2019-06-26T00:15:55.812Z,0.00
2019-06-26T00:16:55.762Z,0.00
2019-06-26T00:17:55.725Z,0.00
2019-06-26T00:18:55.710Z,0.00
2019-06-26T00:19:55.720Z,0.00
2019-06-26T00:20:55.685Z,0.00
2019-06-26T00:21:55.679Z,0.00
2019-06-26T00:22:55.663Z,0.00
2019-06-26T00:23:55.652Z,0.00
2019-06-26T00:24:55.637Z,0.00
2019-06-26T00:25:55.643Z,0.00
2019-06-26T00:26:55.618Z,0.00
2019-06-26T00:27:55.603Z,0.00
2019-06-26T00:28:55.593Z,0.00
2019-06-26T00:29:55.583Z,0.00
2019-06-26T00:30:55.579Z,0.00
2019-06-26T00:31:55.575Z,0.00
2019-06-26T00:32:55.554Z,0.00
2019-06-26T00:33:55.556Z,0.00
2019-06-26T00:34:55.542Z,0.00
2019-06-26T00:35:55.517Z,0.00
2019-06-26T00:36:55.502Z,0.00
2019-06-26T00:37:55.510Z,0.00
2019-06-26T00:38:55.484Z,0.00
2019-06-26T00:39:55.468Z,0.00
2019-06-26T00:40:55.455Z,0.00
2019-06-26T00:41:55.452Z,0.00
2019-06-26T00:42:55.440Z,0.00
2019-06-26T00:43:55.437Z,0.00
2019-06-26T00:44:55.418Z,0.00
2019-06-26T00:45:55.397Z,0.00
2019-06-26T00:46:55.392Z,0.00
2019-06-26T00:47:55.375Z,0.00
2019-06-26T00:48:55.363Z,0.00
2019-06-26T00:49:55.392Z,0.00
2019-06-26T00:50:55.338Z,0.00
2019-06-26T00:51:55.329Z,0.00
2019-06-26T00:52:55.319Z,0.00
2019-06-26T00:53:55.308Z,0.00
2019-06-26T00:54:55.295Z,0.00
2019-06-26T00:55:55.366Z,0.00
2019-06-26T00:56:55.271Z,0.00
2019-06-26T00:57:55.257Z,0.00
2019-06-26T00:58:55.263Z,0.00
2019-06-26T00:59:55.246Z,0.00
2019-06-26T01:00:55.229Z,0.00
2019-06-26T01:01:55.227Z,0.00
2019-06-26T01:02:55.204Z,0.00
2019-06-26T01:03:55.192Z,0.00
2019-06-26T01:04:55.183Z,0.00
2019-06-26T01:05:55.168Z,0.00
2019-06-26T01:06:55.159Z,0.00
2019-06-26T01:07:55.161Z,0.00
2019-06-26T01:08:55.128Z,0.00
2019-06-26T01:09:55.131Z,0.00
2019-06-26T01:10:55.107Z,0.00
2019-06-26T01:11:55.107Z,0.00
2019-06-26T01:12:55.083Z,0.00
2019-06-26T01:13:58.356Z,0.00
2019-06-26T01:14:55.064Z,0.00
2019-06-26T01:15:55.048Z,0.00
2019-06-26T01:16:55.040Z,0.00
2019-06-26T01:17:55.029Z,0.00
2019-06-26T01:18:55.020Z,0.00
2019-06-26T01:19:55.048Z,0.00
2019-06-26T01:20:54.998Z,0.00
2019-06-26T01:21:54.984Z,0.00
2019-06-26T01:22:54.973Z,0.00
2019-06-26T01:23:54.958Z,0.00
2019-06-26T01:24:54.946Z,0.00
2019-06-26T01:25:54.948Z,0.00
2019-06-26T01:26:54.923Z,0.00
2019-06-26T01:27:54.914Z,0.00
2019-06-26T01:28:54.898Z,0.00
2019-06-26T01:29:54.891Z,0.00
2019-06-26T01:30:54.876Z,0.00
2019-06-26T01:31:54.884Z,0.00
2019-06-26T01:32:54.858Z,0.00
2019-06-26T01:33:54.838Z,0.00
2019-06-26T01:34:54.828Z,0.00
2019-06-26T01:35:54.824Z,0.00
2019-06-26T01:36:54.805Z,0.00
2019-06-26T01:37:54.807Z,0.00
2019-06-26T01:38:54.786Z,0.00
2019-06-26T01:39:54.777Z,0.00
2019-06-26T01:40:54.764Z,0.00
2019-06-26T01:41:54.768Z,0.00
2019-06-26T01:42:54.738Z,0.00
2019-06-26T01:43:54.742Z,0.00
2019-06-26T01:44:54.714Z,0.00
2019-06-26T01:45:54.702Z,0.00
2019-06-26T01:46:54.692Z,0.00
2019-06-26T01:47:54.684Z,0.00
2019-06-26T01:48:54.664Z,0.00
2019-06-26T01:49:54.672Z,0.00
2019-06-26T01:50:54.645Z,0.00
2019-06-26T01:51:54.638Z,0.00
2019-06-26T01:52:54.622Z,0.00
2019-06-26T01:53:54.607Z,0.00
2019-06-26T01:54:54.597Z,0.00
2019-06-26T01:55:54.630Z,0.00
2019-06-26T01:56:54.575Z,0.00
2019-06-26T01:57:54.561Z,0.00
2019-06-26T01:58:54.562Z,0.00
2019-06-26T01:59:54.546Z,0.00
2019-06-26T02:00:54.534Z,0.00
2019-06-26T02:01:54.532Z,0.00
2019-06-26T02:02:54.503Z,0.00
2019-06-26T02:03:54.505Z,0.00
2019-06-26T02:04:54.486Z,0.00
2019-06-26T02:05:54.474Z,0.00
2019-06-26T02:06:54.459Z,0.00
2019-06-26T02:07:54.473Z,0.00
2019-06-26T02:08:54.435Z,0.00
2019-06-26T02:09:54.477Z,0.00
2019-06-26T02:10:54.415Z,0.00
2019-06-26T02:11:54.402Z,0.00
2019-06-26T02:12:54.390Z,0.00
2019-06-26T02:13:54.394Z,0.00
2019-06-26T02:14:54.368Z,0.00
2019-06-26T02:15:54.359Z,0.00
2019-06-26T02:16:54.342Z,0.00
2019-06-26T02:17:54.329Z,0.00
2019-06-26T02:18:54.318Z,0.00
2019-06-26T02:19:54.324Z,0.00
2019-06-26T02:20:54.331Z,0.00
2019-06-26T02:21:54.284Z,0.00
2019-06-26T02:22:54.280Z,0.00
2019-06-26T02:23:54.269Z,0.00
2019-06-26T02:24:54.264Z,0.00
2019-06-26T02:25:54.256Z,0.00
2019-06-26T02:26:54.227Z,0.00
2019-06-26T02:27:54.211Z,0.00
2019-06-26T02:28:54.202Z,0.00
2019-06-26T02:29:54.191Z,0.00
2019-06-26T02:30:54.182Z,4.00
2019-06-26T02:31:54.178Z,4.00
2019-06-26T02:32:54.160Z,4.00
2019-06-26T02:33:54.147Z,4.00
2019-06-26T02:34:54.133Z,0.00
2019-06-26T02:35:54.125Z,4.00
2019-06-26T02:36:54.113Z,4.00
2019-06-26T02:37:54.110Z,4.00
2019-06-26T02:38:54.086Z,4.00
2019-06-26T02:39:54.071Z,4.00
2019-06-26T02:40:54.063Z,8.00
2019-06-26T02:41:54.048Z,8.00
2019-06-26T02:42:54.036Z,12.00
2019-06-26T02:43:54.043Z,12.00
2019-06-26T02:44:54.667Z,12.00
2019-06-26T02:45:54.037Z,12.00
2019-06-26T02:46:53.999Z,16.00
2019-06-26T02:47:53.980Z,16.00
2019-06-26T02:48:53.988Z,16.00
2019-06-26T02:49:53.975Z,20.00
2019-06-26T02:50:53.946Z,24.00
2019-06-26T02:51:53.937Z,28.00
2019-06-26T02:52:53.926Z,32.00
2019-06-26T02:53:53.911Z,36.00
2019-06-26T02:54:53.902Z,36.00
2019-06-26T02:55:53.929Z,44.00
2019-06-26T02:56:53.873Z,48.00
2019-06-26T02:57:53.867Z,52.00
2019-06-26T02:58:53.850Z,60.00
2019-06-26T02:59:53.845Z,68.00
2019-06-26T03:00:53.832Z,76.00
2019-06-26T03:01:53.868Z,84.00
2019-06-26T03:02:53.813Z,92.00
2019-06-26T03:03:53.798Z,104.00
2019-06-26T03:04:53.784Z,116.00
2019-06-26T03:05:53.772Z,124.00
2019-06-26T03:06:53.759Z,140.00
2019-06-26T03:07:53.777Z,152.00
2019-06-26T03:08:53.739Z,168.00
2019-06-26T03:09:53.731Z,184.00
2019-06-26T03:10:53.720Z,204.00
2019-06-26T03:11:53.707Z,224.00
2019-06-26T03:12:53.691Z,240.00
2019-06-26T03:13:53.698Z,264.00
2019-06-26T03:15:07.846Z,284.00
2019-06-26T03:15:54.656Z,308.00
2019-06-26T03:16:53.645Z,332.00
2019-06-26T03:17:55.649Z,360.00
2019-06-26T03:18:53.626Z,388.00
2019-06-26T03:19:53.632Z,412.00
2019-06-26T03:20:53.610Z,440.00
2019-06-26T03:21:53.598Z,472.00
2019-06-26T03:22:53.580Z,500.00
2019-06-26T03:23:53.570Z,532.00
2019-06-26T03:24:53.558Z,564.00
2019-06-26T03:25:53.563Z,596.00
2019-06-26T03:26:53.535Z,632.00
2019-06-26T03:27:53.527Z,668.00
2019-06-26T03:28:53.512Z,708.00
2019-06-26T03:29:53.500Z,752.00
2019-06-26T03:30:53.492Z,788.00
2019-06-26T03:31:53.498Z,828.00
2019-06-26T03:32:53.476Z,876.00
2019-06-26T03:33:53.457Z,920.00
2019-06-26T03:34:53.444Z,968.00
2019-06-26T03:35:53.430Z,1016.00
2019-06-26T03:36:53.419Z,1060.00
2019-06-26T03:37:53.425Z,1104.00
2019-06-26T03:38:53.414Z,1140.00
2019-06-26T03:39:53.385Z,1184.00
2019-06-26T03:40:53.373Z,1236.00
2019-06-26T03:41:53.363Z,1312.00
2019-06-26T03:42:53.356Z,1396.00
2019-06-26T03:43:53.359Z,1484.00
2019-06-26T03:44:53.328Z,1564.00
2019-06-26T03:45:53.320Z,1628.00
2019-06-26T03:46:53.362Z,1688.00
2019-06-26T03:47:53.301Z,1748.00
2019-06-26T03:48:53.289Z,1816.00
2019-06-26T03:49:53.301Z,1896.00
2019-06-26T03:50:53.266Z,1988.00
2019-06-26T03:51:53.251Z,2084.00
2019-06-26T03:52:53.252Z,2184.00
2019-06-26T03:53:53.227Z,2304.00
2019-06-26T03:54:53.219Z,2416.00
2019-06-26T03:55:53.222Z,2516.00
2019-06-26T03:56:53.202Z,2620.00
2019-06-26T03:57:53.197Z,2716.00
2019-06-26T03:58:53.181Z,2820.00
2019-06-26T03:59:53.163Z,2916.00
2019-06-26T04:00:53.149Z,3008.00
2019-06-26T04:01:53.157Z,3104.00
2019-06-26T04:02:53.136Z,3204.00
2019-06-26T04:03:53.120Z,3300.00
2019-06-26T04:04:53.110Z,3404.00
2019-06-26T04:05:53.096Z,3512.00
2019-06-26T04:06:53.102Z,3624.00
2019-06-26T04:07:53.093Z,3740.00
2019-06-26T04:08:53.064Z,3864.00
2019-06-26T04:09:53.053Z,3992.00
2019-06-26T04:10:53.044Z,4116.00
2019-06-26T04:11:53.033Z,4240.00
2019-06-26T04:12:53.019Z,4376.00
2019-06-26T04:13:53.020Z,4532.00
2019-06-26T04:14:53.002Z,4692.00
2019-06-26T04:15:52.986Z,4852.00
2019-06-26T04:16:52.972Z,5008.00
2019-06-26T04:17:52.965Z,5176.00
2019-06-26T04:18:52.955Z,5368.00
2019-06-26T04:19:52.965Z,5680.00
2019-06-26T04:20:52.925Z,6048.00
2019-06-26T04:21:52.922Z,6332.00
2019-06-26T04:22:52.905Z,6492.00
2019-06-26T04:23:52.889Z,6520.00
2019-06-26T04:24:52.878Z,6640.00
2019-06-26T04:25:52.897Z,6972.00
2019-06-26T04:26:52.852Z,7392.00
2019-06-26T04:27:52.861Z,7768.00
2019-06-26T04:28:52.832Z,7924.00
2019-06-26T04:29:52.818Z,8140.00
2019-06-26T04:30:52.812Z,8388.00
2019-06-26T04:31:52.818Z,8624.00
2019-06-26T04:32:52.790Z,9060.00
2019-06-26T04:33:52.774Z,9580.00
2019-06-26T04:34:54.540Z,9824.00
2019-06-26T04:35:52.757Z,10004.00
2019-06-26T04:36:52.764Z,10080.00
2019-06-26T04:37:52.743Z,10392.00
2019-06-26T04:38:52.718Z,10728.00
2019-06-26T04:39:52.707Z,11216.00
2019-06-26T04:40:52.695Z,12000.00
2019-06-26T04:41:52.697Z,12692.00
2019-06-26T04:42:52.678Z,13000.00
2019-06-26T04:43:52.683Z,13196.00
2019-06-26T04:44:52.662Z,13284.00
2019-06-26T04:45:58.029Z,13348.00
2019-06-26T04:46:53.628Z,13296.00
2019-06-26T04:47:52.619Z,14464.00
2019-06-26T04:48:52.607Z,16096.00
2019-06-26T04:49:52.618Z,17312.00
2019-06-26T04:50:52.588Z,18144.00
2019-06-26T04:51:52.582Z,17792.00
2019-06-26T04:52:52.563Z,16672.00
2019-06-26T04:53:55.628Z,14784.00
2019-06-26T04:54:52.536Z,14204.00
2019-06-26T04:55:52.543Z,14464.00
2019-06-26T04:56:52.524Z,14592.00
2019-06-26T04:57:52.510Z,14688.00
2019-06-26T04:58:52.492Z,14816.00
2019-06-26T04:59:52.498Z,15008.00
2019-06-26T05:00:52.633Z,15136.00
2019-06-26T05:01:52.486Z,15328.00
2019-06-26T05:02:52.453Z,15424.00
2019-06-26T05:03:52.443Z,15584.00
2019-06-26T05:04:52.431Z,15744.00
2019-06-26T05:05:52.421Z,15936.00
2019-06-26T05:06:52.408Z,16128.00
2019-06-26T05:07:53.829Z,16384.00
2019-06-26T05:08:52.465Z,16640.00
2019-06-26T05:09:52.381Z,16864.00
2019-06-26T05:10:52.368Z,17056.00
2019-06-26T05:11:52.354Z,17280.00
2019-06-26T05:12:52.348Z,17472.00
2019-06-26T05:13:52.364Z,17792.00
2019-06-26T05:14:52.319Z,18112.00
2019-06-26T05:15:52.308Z,18304.00
2019-06-26T05:16:52.298Z,18592.00
2019-06-26T05:17:52.292Z,18880.00
2019-06-26T05:18:52.278Z,19168.00
2019-06-26T05:19:52.281Z,19360.00
2019-06-26T05:20:52.258Z,19680.00
2019-06-26T05:21:52.242Z,19808.00
2019-06-26T05:22:52.237Z,19936.00
2019-06-26T05:23:52.223Z,20256.00
2019-06-26T05:24:52.215Z,20416.00
2019-06-26T05:25:52.212Z,20608.00
2019-06-26T05:26:52.190Z,20832.00
2019-06-26T05:27:52.185Z,21184.00
2019-06-26T05:28:52.166Z,21408.00
2019-06-26T05:29:54.397Z,21760.00
2019-06-26T05:30:52.149Z,21920.00
2019-06-26T05:31:52.183Z,22080.00
2019-06-26T05:32:52.142Z,22592.00
2019-06-26T05:33:52.108Z,23008.00
2019-06-26T05:34:52.547Z,23808.00
2019-06-26T05:35:52.090Z,25408.00
2019-06-26T05:36:52.091Z,26400.00
2019-06-26T05:37:52.084Z,26976.00
2019-06-26T05:38:52.067Z,28160.00
2019-06-26T05:39:54.726Z,29120.00
2019-06-26T05:40:52.040Z,29536.00
2019-06-26T05:41:52.045Z,29920.00
2019-06-26T05:42:52.032Z,30816.00
2019-06-26T05:43:52.115Z,30976.00
2019-06-26T05:44:51.993Z,31520.00
2019-06-26T05:45:51.990Z,32832.00
2019-06-26T05:46:51.989Z,33984.00
2019-06-26T05:47:51.960Z,34272.00
2019-06-26T05:48:51.966Z,34976.00
2019-06-26T05:49:51.955Z,35552.00
2019-06-26T05:50:51.978Z,35968.00
2019-06-26T05:51:51.951Z,36704.00
2019-06-26T05:52:51.908Z,37152.00
2019-06-26T05:53:51.905Z,37504.00
2019-06-26T05:54:51.898Z,37696.00
2019-06-26T05:55:52.893Z,38464.00
2019-06-26T05:56:51.941Z,39872.00
2019-06-26T05:57:51.859Z,38720.00
2019-06-26T05:58:51.851Z,39136.00
2019-06-26T05:59:51.852Z,40448.00
2019-06-26T06:00:51.860Z,40160.00
2019-06-26T06:01:51.843Z,40448.00
2019-06-26T06:02:53.966Z,41952.00
2019-06-26T06:03:51.798Z,41920.00
2019-06-26T06:04:51.805Z,41664.00
2019-06-26T06:05:51.804Z,42688.00
2019-06-26T06:06:51.771Z,44320.00
2019-06-26T06:07:51.773Z,46176.00
2019-06-26T06:08:51.739Z,45152.00
2019-06-26T06:09:51.739Z,46080.00
2019-06-26T06:10:51.729Z,48224.00
2019-06-26T06:11:51.707Z,48864.00
2019-06-26T06:12:51.709Z,48960.00
2019-06-26T06:13:51.723Z,48864.00
2019-06-26T06:14:51.723Z,49792.00
2019-06-26T06:15:51.672Z,49408.00
2019-06-26T06:16:51.676Z,49952.00
2019-06-26T06:17:51.671Z,50880.00
2019-06-26T06:18:51.647Z,51680.00
2019-06-26T06:19:51.740Z,52800.00
2019-06-26T06:20:51.691Z,52672.00
2019-06-26T06:21:51.608Z,51808.00
2019-06-26T06:22:51.592Z,52736.00
2019-06-26T06:23:51.617Z,52832.00
2019-06-26T06:24:51.577Z,51456.00
2019-06-26T06:25:51.671Z,52960.00
2019-06-26T06:26:51.603Z,53248.00
2019-06-26T06:27:51.569Z,54080.00
2019-06-26T06:28:51.599Z,54560.00
2019-06-26T06:29:51.534Z,54784.00
2019-06-26T06:30:51.543Z,54368.00
2019-06-26T06:31:51.549Z,54912.00
2019-06-26T06:32:51.550Z,54240.00
2019-06-26T06:33:51.522Z,54048.00
2019-06-26T06:34:51.476Z,53728.00
2019-06-26T06:35:51.458Z,55968.00
2019-06-26T06:36:51.455Z,59040.00
2019-06-26T06:37:51.482Z,61536.00
2019-06-26T06:38:51.537Z,61728.00
2019-06-26T06:39:51.424Z,61248.00
2019-06-26T06:40:51.410Z,60704.00
2019-06-26T06:41:51.430Z,61216.00
2019-06-26T06:42:51.399Z,63456.00
2019-06-26T06:43:51.472Z,65248.00
2019-06-26T06:44:51.395Z,64768.00
2019-06-26T06:45:51.365Z,64064.00
2019-06-26T06:47:03.219Z,64576.00
2019-06-26T06:47:52.356Z,66688.00
2019-06-26T06:48:51.367Z,67456.00
2019-06-26T06:49:51.369Z,67232.00
2019-06-26T06:50:51.340Z,69184.00
2019-06-26T06:51:51.305Z,66304.00
2019-06-26T06:52:51.289Z,64384.00
2019-06-26T06:53:51.278Z,62976.00
2019-06-26T06:54:51.273Z,63232.00
2019-06-26T06:55:51.310Z,64800.00
2019-06-26T06:56:51.289Z,65216.00
2019-06-26T06:57:51.243Z,65216.00
2019-06-26T06:58:51.240Z,64256.00
2019-06-26T06:59:51.226Z,65856.00
2019-06-26T07:00:51.240Z,65952.00
2019-06-26T07:01:51.237Z,65504.00
2019-06-26T07:02:53.015Z,65088.00
2019-06-26T07:03:51.190Z,64384.00
2019-06-26T07:04:51.180Z,66016.00
2019-06-26T07:05:51.180Z,66688.00
2019-06-26T07:06:51.195Z,67456.00
2019-06-26T07:07:51.541Z,67872.00
2019-06-26T07:08:51.146Z,67840.00
2019-06-26T07:09:51.129Z,69056.00
2019-06-26T07:10:51.120Z,68960.00
2019-06-26T07:11:51.108Z,69856.00
2019-06-26T07:12:51.102Z,69888.00
2019-06-26T07:13:51.119Z,70304.00
2019-06-26T07:14:51.102Z,70080.00
2019-06-26T07:15:51.066Z,70496.00
2019-06-26T07:16:51.061Z,71296.00
2019-06-26T07:17:51.090Z,71360.00
2019-06-26T07:18:51.064Z,71456.00
2019-06-26T07:19:52.954Z,73312.00
2019-06-26T07:20:51.018Z,73248.00
2019-06-26T07:21:51.015Z,72896.00
2019-06-26T07:22:51.008Z,72704.00
2019-06-26T07:23:51.055Z,72896.00
2019-06-26T07:24:51.015Z,74368.00
2019-06-26T07:25:50.982Z,75360.00
2019-06-26T07:26:51.939Z,73504.00
2019-06-26T07:27:50.958Z,72192.00
2019-06-26T07:28:50.999Z,72672.00
2019-06-26T07:29:50.948Z,73472.00
2019-06-26T07:30:50.951Z,73440.00
2019-06-26T07:31:50.923Z,73824.00
2019-06-26T07:32:50.914Z,73408.00
2019-06-26T07:33:50.908Z,74752.00
2019-06-26T07:34:50.922Z,75968.00
2019-06-26T07:35:50.892Z,75392.00
2019-06-26T07:36:50.901Z,75328.00
2019-06-26T07:37:50.920Z,74368.00
2019-06-26T07:38:50.877Z,76672.00
2019-06-26T07:39:50.851Z,76928.00
2019-06-26T07:40:50.843Z,75040.00
2019-06-26T07:41:50.865Z,77088.00
2019-06-26T07:42:50.853Z,80000.00
2019-06-26T07:43:50.824Z,80000.00
2019-06-26T07:44:50.814Z,79616.00
2019-06-26T07:45:50.799Z,77472.00
2019-06-26T07:46:50.784Z,77664.00
2019-06-26T07:47:50.794Z,76640.00
2019-06-26T07:48:50.791Z,75584.00
2019-06-26T07:49:50.763Z,74848.00
2019-06-26T07:50:50.751Z,76224.00
2019-06-26T07:51:50.753Z,79328.00
2019-06-26T07:52:50.819Z,80768.00
2019-06-26T07:53:50.756Z,80128.00
2019-06-26T07:54:50.741Z,79520.00
2019-06-26T07:55:50.704Z,79456.00
2019-06-26T07:56:50.720Z,80352.00
2019-06-26T07:57:50.724Z,80768.00
2019-06-26T07:58:50.687Z,81088.00
2019-06-26T07:59:50.669Z,78464.00
2019-06-26T08:00:50.681Z,76992.00
2019-06-26T08:01:50.649Z,77920.00
2019-06-26T08:02:50.637Z,79744.00
2019-06-26T08:03:50.639Z,81728.00
2019-06-26T08:04:50.622Z,82720.00
2019-06-26T08:05:50.614Z,82752.00
2019-06-26T08:06:50.637Z,83552.00
2019-06-26T08:07:50.671Z,83872.00
2019-06-26T08:08:50.613Z,83680.00
2019-06-26T08:09:50.612Z,84288.00
2019-06-26T08:10:50.606Z,84096.00
2019-06-26T08:11:50.568Z,84800.00
2019-06-26T08:12:50.567Z,81024.00
2019-06-26T08:13:50.544Z,79520.00
2019-06-26T08:14:50.540Z,84448.00
2019-06-26T08:15:50.535Z,86208.00
2019-06-26T08:16:50.517Z,86592.00
2019-06-26T08:18:00.561Z,85504.00
2019-06-26T08:18:51.523Z,85408.00
2019-06-26T08:19:50.492Z,87456.00
2019-06-26T08:21:10.647Z,88736.00
2019-06-26T08:21:51.481Z,88448.00
2019-06-26T08:22:50.469Z,89408.00
2019-06-26T08:23:50.488Z,88256.00
2019-06-26T08:24:50.468Z,87616.00
2019-06-26T08:25:50.445Z,89696.00
2019-06-26T08:26:50.454Z,89600.00
2019-06-26T08:27:50.430Z,90880.00
2019-06-26T08:28:50.416Z,89536.00
2019-06-26T08:29:50.428Z,87840.00
2019-06-26T08:30:50.418Z,87488.00
2019-06-26T08:31:50.417Z,87808.00
2019-06-26T08:32:50.424Z,88768.00
2019-06-26T08:33:50.386Z,88960.00
2019-06-26T08:34:50.379Z,89920.00
2019-06-26T08:35:50.380Z,89856.00
2019-06-26T08:36:50.403Z,86688.00
2019-06-26T08:37:50.344Z,87872.00
2019-06-26T08:38:50.351Z,89312.00
2019-06-26T08:39:50.334Z,89184.00
2019-06-26T08:40:50.319Z,89472.00
2019-06-26T08:41:50.324Z,90048.00
2019-06-26T08:42:50.322Z,90720.00
2019-06-26T08:43:50.299Z,90752.00
2019-06-26T08:44:50.288Z,90048.00
2019-06-26T08:45:50.286Z,90240.00
2019-06-26T08:46:50.275Z,90624.00
2019-06-26T08:47:50.261Z,90112.00
2019-06-26T08:48:52.058Z,91776.00
2019-06-26T08:49:50.247Z,91776.00
2019-06-26T08:50:50.241Z,92864.00
2019-06-26T08:51:50.229Z,94496.00
2019-06-26T08:52:50.246Z,93312.00
2019-06-26T08:53:50.224Z,93952.00
2019-06-26T08:54:50.242Z,95232.00
2019-06-26T08:55:50.200Z,94016.00
2019-06-26T08:56:50.187Z,91232.00
2019-06-26T08:57:50.184Z,90784.00
2019-06-26T08:58:50.175Z,90688.00
2019-06-26T08:59:50.174Z,91648.00
2019-06-26T09:00:50.190Z,94272.00
2019-06-26T09:01:50.155Z,92832.00
2019-06-26T09:02:50.141Z,91392.00
2019-06-26T09:03:50.139Z,94656.00
2019-06-26T09:04:50.127Z,93312.00
2019-06-26T09:05:50.120Z,94912.00
2019-06-26T09:06:50.147Z,92480.00
2019-06-26T09:07:50.144Z,90848.00
2019-06-26T09:08:50.100Z,92416.00
2019-06-26T09:09:50.092Z,91392.00
2019-06-26T09:10:50.088Z,92256.00
2019-06-26T09:11:50.071Z,90976.00
2019-06-26T09:12:50.089Z,90720.00
2019-06-26T09:13:50.052Z,87744.00
2019-06-26T09:14:50.051Z,86016.00
2019-06-26T09:15:50.319Z,86304.00
2019-06-26T09:16:50.037Z,87616.00
2019-06-26T09:17:50.027Z,91200.00
2019-06-26T09:18:50.032Z,91136.00
2019-06-26T09:19:50.007Z,91776.00
2019-06-26T09:20:50.018Z,91616.00
2019-06-26T09:21:50.027Z,92832.00
2019-06-26T09:22:49.994Z,95008.00
2019-06-26T09:23:49.979Z,93792.00
2019-06-26T09:24:50.022Z,94656.00
2019-06-26T09:25:49.973Z,94496.00
2019-06-26T09:26:49.954Z,93696.00
2019-06-26T09:27:49.954Z,94656.00
2019-06-26T09:28:49.944Z,95520.00
2019-06-26T09:29:49.927Z,95136.00
2019-06-26T09:30:50.014Z,92800.00
2019-06-26T09:31:49.919Z,93056.00
2019-06-26T09:32:49.905Z,91744.00
2019-06-26T09:33:49.903Z,91296.00
2019-06-26T09:34:49.943Z,92352.00
2019-06-26T09:35:49.895Z,92096.00
2019-06-26T09:36:50.060Z,93408.00
2019-06-26T09:37:49.922Z,91552.00
2019-06-26T09:38:49.880Z,92320.00
2019-06-26T09:39:49.877Z,91392.00
2019-06-26T09:40:49.852Z,90176.00
2019-06-26T09:41:49.894Z,93568.00
2019-06-26T09:42:49.854Z,94240.00
2019-06-26T09:43:49.842Z,93760.00
2019-06-26T09:44:49.822Z,94176.00
2019-06-26T09:45:49.823Z,95744.00
2019-06-26T09:46:49.819Z,94976.00
2019-06-26T09:47:49.811Z,93760.00
2019-06-26T09:48:53.202Z,92544.00
2019-06-26T09:49:49.835Z,91584.00
2019-06-26T09:50:49.786Z,89984.00
2019-06-26T09:51:49.807Z,91040.00
2019-06-26T09:52:49.763Z,89824.00
2019-06-26T09:53:49.783Z,93280.00
2019-06-26T09:54:49.807Z,90080.00
2019-06-26T09:55:49.746Z,91040.00
2019-06-26T09:56:49.745Z,94752.00
2019-06-26T09:57:49.765Z,95072.00
2019-06-26T09:58:49.732Z,93504.00
2019-06-26T09:59:49.742Z,92768.00
2019-06-26T10:00:49.747Z,94656.00
2019-06-26T10:01:49.709Z,94816.00
2019-06-26T10:02:49.714Z,93792.00
2019-06-26T10:03:49.728Z,91168.00
2019-06-26T10:04:49.680Z,91264.00
2019-06-26T10:05:49.752Z,90752.00
2019-06-26T10:06:49.689Z,92128.00
2019-06-26T10:07:49.736Z,95072.00
2019-06-26T10:08:49.657Z,94848.00
2019-06-26T10:09:51.399Z,95200.00
2019-06-26T10:10:49.649Z,93952.00
2019-06-26T10:11:49.644Z,93120.00
2019-06-26T10:12:49.658Z,96768.00
2019-06-26T10:13:49.620Z,95296.00
2019-06-26T10:14:49.618Z,95744.00
2019-06-26T10:15:49.610Z,97984.00
2019-06-26T10:16:49.605Z,97152.00
2019-06-26T10:17:49.611Z,98624.00
2019-06-26T10:18:49.624Z,97984.00
2019-06-26T10:19:49.583Z,98752.00
2019-06-26T10:20:49.574Z,96288.00
2019-06-26T10:21:49.568Z,95776.00
2019-06-26T10:22:49.558Z,93696.00
2019-06-26T10:23:49.551Z,95072.00
2019-06-26T10:24:49.566Z,91456.00
2019-06-26T10:25:49.559Z,92416.00
2019-06-26T10:26:49.533Z,95008.00
2019-06-26T10:27:49.542Z,93568.00
2019-06-26T10:28:49.539Z,94656.00
2019-06-26T10:29:49.532Z,95840.00
2019-06-26T10:30:49.530Z,95072.00
2019-06-26T10:31:49.497Z,95200.00
2019-06-26T10:32:49.548Z,97792.00
2019-06-26T10:33:49.493Z,100896.00
2019-06-26T10:34:49.481Z,99616.00
2019-06-26T10:35:49.472Z,96832.00
2019-06-26T10:36:49.493Z,96032.00
2019-06-26T10:37:49.467Z,95200.00
2019-06-26T10:38:49.456Z,98816.00
2019-06-26T10:39:49.447Z,96128.00
2019-06-26T10:40:49.441Z,94368.00
2019-06-26T10:41:49.441Z,95008.00
2019-06-26T10:42:49.457Z,95008.00
2019-06-26T10:43:49.416Z,93120.00
2019-06-26T10:44:49.413Z,90496.00
2019-06-26T10:45:49.398Z,92160.00
2019-06-26T10:46:49.442Z,93344.00
2019-06-26T10:47:49.387Z,95136.00
2019-06-26T10:48:49.511Z,94912.00
2019-06-26T10:49:49.377Z,89216.00
2019-06-26T10:50:57.151Z,93152.00
2019-06-26T10:51:50.385Z,90752.00
2019-06-26T10:52:49.362Z,99552.00
2019-06-26T10:53:49.371Z,99872.00
2019-06-26T10:54:49.367Z,94400.00
2019-06-26T10:55:49.338Z,93472.00
2019-06-26T10:56:49.332Z,92544.00
2019-06-26T10:57:49.329Z,89920.00
2019-06-26T10:58:49.399Z,93248.00
2019-06-26T10:59:49.307Z,95008.00
2019-06-26T11:00:49.318Z,94592.00
2019-06-26T11:01:49.289Z,96416.00
2019-06-26T11:02:49.290Z,95072.00
2019-06-26T11:03:49.292Z,95584.00
2019-06-26T11:04:49.289Z,96576.00
2019-06-26T11:05:49.271Z,96256.00
2019-06-26T11:06:50.930Z,89504.00
2019-06-26T11:07:49.245Z,87520.00
2019-06-26T11:08:49.253Z,85376.00
2019-06-26T11:09:49.236Z,88160.00
2019-06-26T11:10:49.246Z,95008.00
2019-06-26T11:11:49.227Z,92416.00
2019-06-26T11:12:49.242Z,90496.00
2019-06-26T11:13:49.201Z,89536.00
2019-06-26T11:14:49.274Z,91680.00
2019-06-26T11:15:49.195Z,91712.00
2019-06-26T11:16:49.208Z,96032.00
2019-06-26T11:17:49.178Z,95648.00
2019-06-26T11:18:49.202Z,90816.00
2019-06-26T11:19:49.173Z,89536.00
2019-06-26T11:20:49.182Z,92672.00
2019-06-26T11:21:49.220Z,91840.00
2019-06-26T11:22:49.147Z,94240.00
2019-06-26T11:23:49.132Z,93920.00
2019-06-26T11:24:49.182Z,84416.00
2019-06-26T11:25:49.129Z,85248.00
2019-06-26T11:26:49.109Z,85504.00
2019-06-26T11:27:49.118Z,87104.00
2019-06-26T11:28:49.120Z,91392.00
2019-06-26T11:29:49.089Z,89472.00
2019-06-26T11:30:49.089Z,90432.00
2019-06-26T11:31:49.076Z,93120.00
2019-06-26T11:32:49.063Z,91744.00
2019-06-26T11:33:49.077Z,84288.00
2019-06-26T11:34:49.049Z,86976.00
2019-06-26T11:35:49.036Z,82112.00
2019-06-26T11:37:02.788Z,83168.00
2019-06-26T11:37:50.016Z,86912.00
2019-06-26T11:38:49.029Z,88512.00
2019-06-26T11:39:49.019Z,87552.00
2019-06-26T11:40:49.024Z,83872.00
2019-06-26T11:41:48.999Z,91040.00
2019-06-26T11:42:49.007Z,93984.00
2019-06-26T11:43:49.008Z,96320.00
2019-06-26T11:44:48.967Z,94080.00
2019-06-26T11:45:48.969Z,92096.00
2019-06-26T11:46:48.957Z,91776.00
2019-06-26T11:47:48.943Z,87584.00
2019-06-26T11:48:48.959Z,88448.00
2019-06-26T11:49:59.281Z,88000.00
2019-06-26T11:50:49.929Z,87680.00
2019-06-26T11:51:48.951Z,90976.00
2019-06-26T11:52:48.956Z,90176.00
2019-06-26T11:53:48.892Z,88800.00
2019-06-26T11:55:02.202Z,89376.00
2019-06-26T11:55:49.885Z,87840.00
2019-06-26T11:56:48.947Z,86784.00
2019-06-26T11:57:48.864Z,87392.00
2019-06-26T11:58:48.867Z,87328.00
2019-06-26T11:59:48.847Z,81376.00
2019-06-26T12:00:48.860Z,45440.00
2019-06-26T12:01:48.927Z,16368.00
2019-06-26T12:02:48.835Z,14268.00
2019-06-26T12:03:48.816Z,14340.00
2019-06-26T12:04:48.820Z,14216.00
2019-06-26T12:05:48.804Z,14104.00
2019-06-26T12:06:48.813Z,14096.00
2019-06-26T12:07:48.780Z,14076.00
2019-06-26T12:08:48.826Z,14008.00